Bishop, Illinois
Current Conditions -  °F | °C
As of 5:54 PM on Sunday 25 Jan 2015 (Local Time) from KPIA Reporting Station
Overcast Overcast  
Wind Chill: 21°   Ceiling: 3500
Heat Index: 30°   Visibility: 10mi
Dew Point: 22°   Wind: 12mph
Humidity: 72%   Direction: 30°NNE
Pressure: 29.93"   Gusts: 21mph
Location:  40.3389°N, 89.8274°W
Report Text: KPIA 252354Z 03010G18KT 350V050 10SM OVC035 M01/M06 A2993 RMK AO2 PK WND 36026/2259 SLP141 60004 I6000 T10111056 10022 21011 53047
Loading
Personal Weather Stations






























Interactive Weather Map New forecast layout! Learn more

10-Day Weather Forecast

Advertisements
Track Severe Weather on mobile